Time;durP1;ratioP1;P1;durP2;ratioP2;P2;SDS_P1;SDS_P2;PMS_P1;PMS_P2;Temp;Humidity;BMP_temperature;BMP_pressure;BME280_temperature;BME280_humidity;BME280_pressure;Samples;Min_cycle;Max_cycle;Signal;HPM_P1;HPM_P2
2023/10/23 00:00:56;;;;;;;1.67;0.70;;;;;;;;;;5023366;28;20475;-69
2023/10/23 00:03:23;;;;;;;3.03;1.20;;;;;;;;;;5019075;28;20505;-68
2023/10/23 00:05:50;;;;;;;2.27;0.93;;;;;;;;;;5027748;28;20548;-68
2023/10/23 00:08:17;;;;;;;2.47;1.10;;;;;;;;;;5030549;28;20455;-68
2023/10/23 00:10:44;;;;;;;1.90;0.80;;;;;;;;;;5029065;28;20891;-67
2023/10/23 00:13:11;;;;;;;2.00;0.90;;;;;;;;;;5019921;28;20496;-67
2023/10/23 00:15:40;;;;;;;2.80;1.07;;;;;;;;;;5026441;28;20467;-67
2023/10/23 00:18:07;;;;;;;1.63;0.77;;;;;;;;;;5019860;28;20442;-67
2023/10/23 00:20:34;;;;;;;2.67;1.00;;;;;;;;;;5026090;28;21067;-67
2023/10/23 00:23:01;;;;;;;1.80;0.70;;;;;;;;;;5017724;28;20490;-68
2023/10/23 00:25:29;;;;;;;2.40;1.10;;;;;;;;;;5024849;28;20460;-68
2023/10/23 00:27:56;;;;;;;3.27;1.30;;;;;;;;;;5027962;28;20470;-67
2023/10/23 00:30:23;;;;;;;2.90;1.10;;;;;;;;;;5027828;28;20534;-68
2023/10/23 00:32:52;;;;;;;3.43;1.50;;;;;;;;;;5018301;28;20451;-67
2023/10/23 00:35:19;;;;;;;1.97;0.80;;;;;;;;;;5028336;28;20533;-68
2023/10/23 00:37:46;;;;;;;2.10;1.20;;;;;;;;;;5026365;28;20454;-69
2023/10/23 00:40:13;;;;;;;2.03;1.00;;;;;;;;;;5029668;28;20467;-68
2023/10/23 00:42:40;;;;;;;1.50;0.60;;;;;;;;;;5029929;28;20446;-68
2023/10/23 00:45:08;;;;;;;2.90;1.37;;;;;;;;;;5021987;28;20982;-68
2023/10/23 00:47:35;;;;;;;2.37;1.10;;;;;;;;;;5016560;28;20954;-68
2023/10/23 00:50:04;;;;;;;2.60;1.40;;;;;;;;;;5015631;28;20487;-68
2023/10/23 00:52:31;;;;;;;2.80;1.33;;;;;;;;;;5015191;28;20923;-67
2023/10/23 00:54:58;;;;;;;1.67;0.53;;;;;;;;;;5023434;28;20934;-68
2023/10/23 00:57:25;;;;;;;2.07;0.90;;;;;;;;;;5020171;28;20443;-67
2023/10/23 00:59:55;;;;;;;1.73;0.80;;;;;;;;;;5018343;28;20713;-67
2023/10/23 01:02:22;;;;;;;1.67;0.67;;;;;;;;;;5028291;28;20866;-68
2023/10/23 01:04:49;;;;;;;2.37;1.30;;;;;;;;;;5021137;28;20829;-67
2023/10/23 01:07:18;;;;;;;3.20;0.87;;;;;;;;;;5019826;28;20466;-67
2023/10/23 01:09:45;;;;;;;1.70;0.70;;;;;;;;;;5019533;28;20795;-69
2023/10/23 01:12:12;;;;;;;1.77;0.70;;;;;;;;;;5028050;28;20451;-68
2023/10/23 01:14:39;;;;;;;2.23;0.70;;;;;;;;;;5019131;28;20867;-68
2023/10/23 01:17:06;;;;;;;1.67;0.70;;;;;;;;;;5021395;28;20460;-70
2023/10/23 01:19:33;;;;;;;1.60;0.80;;;;;;;;;;5030580;28;20535;-69
2023/10/23 01:22:00;;;;;;;1.50;0.60;;;;;;;;;;5022858;28;20487;-68
2023/10/23 01:24:31;;;;;;;2.77;1.00;;;;;;;;;;5028101;28;20447;-69
2023/10/23 01:27:00;;;;;;;1.73;0.60;;;;;;;;;;5018855;28;20462;-69
2023/10/23 01:29:27;;;;;;;2.00;0.90;;;;;;;;;;5030662;28;20952;-68
2023/10/23 01:31:54;;;;;;;1.70;0.70;;;;;;;;;;5023474;28;20443;-68
2023/10/23 01:34:21;;;;;;;18.77;1.57;;;;;;;;;;5019820;28;20511;-68
2023/10/23 01:36:48;;;;;;;1.90;0.93;;;;;;;;;;5028376;28;20482;-68
2023/10/23 01:39:15;;;;;;;2.10;1.00;;;;;;;;;;5028807;28;20467;-68
2023/10/23 01:41:42;;;;;;;1.93;1.10;;;;;;;;;;5029925;28;20478;-68
2023/10/23 01:44:11;;;;;;;1.87;0.80;;;;;;;;;;5033702;28;20815;-68
2023/10/23 01:46:38;;;;;;;15.03;1.00;;;;;;;;;;5025610;28;20536;-68
2023/10/23 01:49:07;;;;;;;9.43;1.37;;;;;;;;;;5032903;28;20917;-68
2023/10/23 01:51:34;;;;;;;1.70;0.77;;;;;;;;;;5030411;28;20473;-69
2023/10/23 01:54:01;;;;;;;2.20;0.93;;;;;;;;;;5033365;28;20455;-68
2023/10/23 01:56:28;;;;;;;2.17;0.90;;;;;;;;;;5024526;28;20553;-68
2023/10/23 01:58:55;;;;;;;2.53;0.80;;;;;;;;;;5033269;28;20454;-69
2023/10/23 02:01:23;;;;;;;1.87;1.00;;;;;;;;;;5033312;28;20485;-68
2023/10/23 02:03:51;;;;;;;2.77;1.20;;;;;;;;;;5019844;28;20447;-68
2023/10/23 02:06:18;;;;;;;2.03;0.83;;;;;;;;;;5025852;28;21175;-69
2023/10/23 02:08:45;;;;;;;2.10;0.67;;;;;;;;;;5027573;28;20444;-67
2023/10/23 02:11:13;;;;;;;1.50;0.60;;;;;;;;;;5024410;28;20431;-69
2023/10/23 02:13:40;;;;;;;2.10;0.80;;;;;;;;;;5027945;28;20456;-68
2023/10/23 02:16:06;;;;;;;3.63;1.27;;;;;;;;;;5031352;28;20459;-67
2023/10/23 02:18:35;;;;;;;3.40;0.83;;;;;;;;;;5026713;28;20926;-68
2023/10/23 02:21:02;;;;;;;2.57;0.63;;;;;;;;;;5025017;28;20486;-68
2023/10/23 02:23:31;;;;;;;3.43;1.23;;;;;;;;;;5032299;28;20459;-69
2023/10/23 02:25:59;;;;;;;1.90;0.70;;;;;;;;;;5023718;28;20488;-68
2023/10/23 02:28:26;;;;;;;2.30;0.97;;;;;;;;;;5026778;28;20436;-68
2023/10/23 02:30:53;;;;;;;1.57;0.60;;;;;;;;;;5022851;28;20439;-70
2023/10/23 02:33:20;;;;;;;2.17;1.03;;;;;;;;;;5019645;28;20443;-67
2023/10/23 02:35:49;;;;;;;1.93;0.87;;;;;;;;;;5020088;28;20487;-68
2023/10/23 02:38:16;;;;;;;2.13;0.90;;;;;;;;;;5024804;28;20464;-69
2023/10/23 02:40:51;;;;;;;1.80;0.80;;;;;;;;;;5022813;28;20484;-68
2023/10/23 02:43:18;;;;;;;2.83;0.87;;;;;;;;;;5015047;28;20443;-68
2023/10/23 02:45:45;;;;;;;1.80;0.77;;;;;;;;;;5028130;28;20486;-68
2023/10/23 02:48:12;;;;;;;2.80;0.90;;;;;;;;;;5022279;28;20463;-67
2023/10/23 02:50:39;;;;;;;1.70;1.00;;;;;;;;;;5031789;28;20451;-67
2023/10/23 02:53:09;;;;;;;1.70;0.50;;;;;;;;;;5031370;28;20812;-68
2023/10/23 02:55:40;;;;;;;6.40;1.10;;;;;;;;;;5019908;28;21063;-67
2023/10/23 02:58:07;;;;;;;1.60;0.80;;;;;;;;;;5025266;28;20466;-67
2023/10/23 03:00:34;;;;;;;1.50;0.70;;;;;;;;;;5026563;28;20844;-67
2023/10/23 03:03:01;;;;;;;1.50;0.70;;;;;;;;;;5033182;28;20513;-67
2023/10/23 03:05:28;;;;;;;3.87;1.10;;;;;;;;;;5020244;28;20475;-67
2023/10/23 03:07:55;;;;;;;2.60;1.13;;;;;;;;;;5021761;28;20468;-69
2023/10/23 03:10:23;;;;;;;1.57;0.60;;;;;;;;;;5025673;28;20447;-68
2023/10/23 03:12:50;;;;;;;1.60;0.67;;;;;;;;;;5019686;28;20450;-67
2023/10/23 03:15:17;;;;;;;2.10;1.10;;;;;;;;;;5028448;28;20479;-67
2023/10/23 03:17:45;;;;;;;2.30;0.83;;;;;;;;;;5021917;28;20451;-68
2023/10/23 03:20:12;;;;;;;2.23;0.90;;;;;;;;;;5019626;28;20433;-67
2023/10/23 03:22:39;;;;;;;2.73;0.80;;;;;;;;;;5031472;28;20481;-68
2023/10/23 03:25:07;;;;;;;1.50;0.50;;;;;;;;;;5031754;28;20980;-68
2023/10/23 03:27:35;;;;;;;1.77;0.70;;;;;;;;;;5018303;28;20464;-69
2023/10/23 03:30:02;;;;;;;1.60;0.60;;;;;;;;;;5029008;28;20454;-67
2023/10/23 03:32:30;;;;;;;1.93;0.57;;;;;;;;;;5030618;28;20538;-67
2023/10/23 03:35:00;;;;;;;1.70;0.60;;;;;;;;;;5020797;28;20526;-69
2023/10/23 03:37:27;;;;;;;3.00;1.00;;;;;;;;;;5025966;28;20938;-68
2023/10/23 03:39:54;;;;;;;2.60;0.80;;;;;;;;;;5031547;28;20458;-67
2023/10/23 03:42:21;;;;;;;1.70;0.83;;;;;;;;;;5028460;28;20471;-67
2023/10/23 03:44:50;;;;;;;1.70;0.90;;;;;;;;;;5029235;28;20829;-67
2023/10/23 03:47:17;;;;;;;2.70;1.57;;;;;;;;;;5022814;28;20464;-67
2023/10/23 03:49:44;;;;;;;1.70;0.70;;;;;;;;;;5017963;28;20435;-67
2023/10/23 03:52:11;;;;;;;4.43;0.87;;;;;;;;;;5027306;28;20471;-67
2023/10/23 03:54:38;;;;;;;2.47;1.17;;;;;;;;;;5027114;28;20459;-69
2023/10/23 03:57:06;;;;;;;1.90;1.00;;;;;;;;;;5029211;28;20482;-68
2023/10/23 03:59:33;;;;;;;3.43;1.27;;;;;;;;;;5032113;28;20443;-69
2023/10/23 04:02:01;;;;;;;3.07;1.37;;;;;;;;;;5031658;28;20482;-67
2023/10/23 04:04:28;;;;;;;2.73;0.60;;;;;;;;;;5030330;28;20973;-67
2023/10/23 04:06:55;;;;;;;2.73;0.73;;;;;;;;;;5022607;28;20506;-67
2023/10/23 04:09:22;;;;;;;1.77;0.90;;;;;;;;;;5030992;28;20852;-67
2023/10/23 04:11:49;;;;;;;2.23;1.20;;;;;;;;;;5031779;28;20439;-69
2023/10/23 04:14:16;;;;;;;2.80;1.10;;;;;;;;;;5030672;28;20463;-67
2023/10/23 04:16:43;;;;;;;1.50;0.60;;;;;;;;;;5028426;28;21028;-67
2023/10/23 04:19:12;;;;;;;3.90;1.30;;;;;;;;;;5021137;28;20448;-67
2023/10/23 04:21:39;;;;;;;1.83;0.77;;;;;;;;;;5025100;28;20484;-68
2023/10/23 04:24:07;;;;;;;2.27;0.93;;;;;;;;;;5021621;28;20519;-67
2023/10/23 04:26:34;;;;;;;2.90;1.70;;;;;;;;;;5027833;28;20471;-67
2023/10/23 04:29:02;;;;;;;6.03;1.13;;;;;;;;;;5031712;28;20823;-66
2023/10/23 04:31:29;;;;;;;1.87;0.60;;;;;;;;;;5018356;28;20447;-67
2023/10/23 04:33:56;;;;;;;3.67;1.40;;;;;;;;;;5024638;28;20458;-67
2023/10/23 04:36:24;;;;;;;1.87;1.07;;;;;;;;;;5029238;28;20842;-67
2023/10/23 04:38:51;;;;;;;2.83;1.03;;;;;;;;;;5022591;28;20459;-67
2023/10/23 04:41:22;;;;;;;1.53;0.60;;;;;;;;;;5018081;28;20479;-67
2023/10/23 04:43:49;;;;;;;3.10;1.10;;;;;;;;;;5016555;28;20448;-67
2023/10/23 04:46:17;;;;;;;2.60;0.80;;;;;;;;;;5028171;28;20497;-68
2023/10/23 04:48:44;;;;;;;3.00;1.17;;;;;;;;;;5023354;28;20447;-67
2023/10/23 04:51:11;;;;;;;2.60;1.40;;;;;;;;;;5023240;28;20448;-67
2023/10/23 04:53:39;;;;;;;2.17;0.93;;;;;;;;;;5024478;28;20838;-68
2023/10/23 04:56:07;;;;;;;2.00;1.10;;;;;;;;;;5026845;28;21000;-68
2023/10/23 04:58:34;;;;;;;2.93;0.90;;;;;;;;;;5027217;28;20455;-67
2023/10/23 05:01:01;;;;;;;4.60;1.40;;;;;;;;;;5025775;28;20451;-68
2023/10/23 05:03:29;;;;;;;2.40;1.40;;;;;;;;;;5023341;28;20929;-67
2023/10/23 05:05:56;;;;;;;2.40;1.10;;;;;;;;;;5018529;28;20477;-67
2023/10/23 05:08:23;;;;;;;1.73;0.87;;;;;;;;;;5024065;28;20455;-69
2023/10/23 05:10:52;;;;;;;2.10;1.00;;;;;;;;;;5021036;28;20961;-67
2023/10/23 05:13:19;;;;;;;1.60;0.60;;;;;;;;;;5019519;28;20432;-68
2023/10/23 05:15:46;;;;;;;2.30;1.00;;;;;;;;;;5030453;28;20459;-67
2023/10/23 05:18:13;;;;;;;1.47;0.53;;;;;;;;;;5027304;28;20442;-66
2023/10/23 05:20:40;;;;;;;4.20;1.07;;;;;;;;;;5019261;28;20478;-66
2023/10/23 05:23:07;;;;;;;1.87;1.03;;;;;;;;;;5028323;28;20505;-67
2023/10/23 05:25:37;;;;;;;4.60;1.37;;;;;;;;;;5026142;28;20470;-67
2023/10/23 05:28:05;;;;;;;1.50;0.50;;;;;;;;;;5022576;28;20505;-67
2023/10/23 05:30:32;;;;;;;2.93;1.57;;;;;;;;;;5030167;28;20486;-67
2023/10/23 05:32:59;;;;;;;2.30;1.30;;;;;;;;;;5021651;28;20466;-68
2023/10/23 05:35:26;;;;;;;3.53;0.90;;;;;;;;;;5026423;28;20976;-65
2023/10/23 05:37:53;;;;;;;1.70;0.70;;;;;;;;;;5023365;28;20790;-67
2023/10/23 05:40:20;;;;;;;1.90;1.00;;;;;;;;;;5018579;28;20803;-67
2023/10/23 05:42:47;;;;;;;2.00;1.10;;;;;;;;;;5017845;28;20486;-66
2023/10/23 05:45:16;;;;;;;2.47;1.53;;;;;;;;;;5029268;28;20494;-65
2023/10/23 05:47:43;;;;;;;3.00;1.40;;;;;;;;;;5024046;28;20447;-68
2023/10/23 05:50:10;;;;;;;2.43;0.77;;;;;;;;;;5018376;28;20455;-66
2023/10/23 05:52:37;;;;;;;2.53;1.30;;;;;;;;;;5023304;28;20448;-66
2023/10/23 05:55:05;;;;;;;2.13;1.03;;;;;;;;;;5023363;28;20486;-67
2023/10/23 05:57:32;;;;;;;1.53;0.53;;;;;;;;;;5024766;28;20485;-66
2023/10/23 05:59:59;;;;;;;2.20;1.10;;;;;;;;;;5018113;28;20502;-66
2023/10/23 06:02:29;;;;;;;2.30;1.10;;;;;;;;;;5025869;28;21008;-68
2023/10/23 06:04:56;;;;;;;2.40;1.00;;;;;;;;;;5027934;28;20467;-69
2023/10/23 06:07:24;;;;;;;2.03;0.93;;;;;;;;;;5017242;28;20638;-67
2023/10/23 06:09:51;;;;;;;2.60;1.10;;;;;;;;;;5025228;28;20473;-66
2023/10/23 06:12:18;;;;;;;1.90;1.10;;;;;;;;;;5017972;28;20945;-67
2023/10/23 06:14:46;;;;;;;2.80;1.43;;;;;;;;;;5025824;28;20446;-67
2023/10/23 06:17:13;;;;;;;2.10;1.47;;;;;;;;;;5016293;28;20462;-67
2023/10/23 06:19:41;;;;;;;2.10;1.10;;;;;;;;;;5027639;28;20447;-67
2023/10/23 06:22:08;;;;;;;1.87;0.80;;;;;;;;;;5033080;28;20817;-67
2023/10/23 06:24:35;;;;;;;1.77;0.83;;;;;;;;;;5030828;28;20490;-67
2023/10/23 06:27:03;;;;;;;2.63;1.17;;;;;;;;;;5017238;28;20532;-68
2023/10/23 06:29:30;;;;;;;1.60;0.63;;;;;;;;;;5031816;28;20450;-67
2023/10/23 06:31:57;;;;;;;3.50;1.97;;;;;;;;;;5024904;28;20806;-67
2023/10/23 06:34:24;;;;;;;3.70;1.13;;;;;;;;;;5029192;28;20803;-67
2023/10/23 06:36:53;;;;;;;3.50;1.67;;;;;;;;;;5031050;28;20471;-70
2023/10/23 06:39:20;;;;;;;3.13;0.97;;;;;;;;;;5018862;28;20951;-66
2023/10/23 06:41:50;;;;;;;2.33;1.23;;;;;;;;;;5031510;28;20459;-67
2023/10/23 06:44:19;;;;;;;2.27;1.50;;;;;;;;;;5026105;28;20911;-68
2023/10/23 06:46:46;;;;;;;2.73;1.23;;;;;;;;;;5026203;28;20562;-67
2023/10/23 06:49:13;;;;;;;2.30;1.40;;;;;;;;;;5033255;28;20766;-67
2023/10/23 06:51:41;;;;;;;4.60;1.70;;;;;;;;;;5021976;28;20459;-67
2023/10/23 06:54:11;;;;;;;2.27;1.23;;;;;;;;;;5030259;28;20937;-67
2023/10/23 06:56:38;;;;;;;4.20;1.53;;;;;;;;;;5030166;28;20490;-67
2023/10/23 06:59:05;;;;;;;3.63;1.73;;;;;;;;;;5029184;28;20953;-68
2023/10/23 07:01:32;;;;;;;2.50;1.60;;;;;;;;;;5027932;28;20825;-68
2023/10/23 07:03:59;;;;;;;3.13;1.40;;;;;;;;;;5025152;28;21027;-67
2023/10/23 07:06:26;;;;;;;3.90;1.20;;;;;;;;;;5031761;28;20808;-66
2023/10/23 07:08:53;;;;;;;3.13;1.63;;;;;;;;;;5031232;28;20463;-66
2023/10/23 07:11:22;;;;;;;2.87;1.57;;;;;;;;;;5031082;28;20467;-67
2023/10/23 07:13:49;;;;;;;2.00;1.00;;;;;;;;;;5018874;28;20444;-67
2023/10/23 07:16:18;;;;;;;3.33;1.60;;;;;;;;;;5029858;28;20459;-67
2023/10/23 07:18:45;;;;;;;2.73;1.87;;;;;;;;;;5026881;28;20466;-66
2023/10/23 07:21:13;;;;;;;3.63;2.50;;;;;;;;;;5022834;28;20468;-67
2023/10/23 07:23:40;;;;;;;3.27;1.70;;;;;;;;;;5030708;28;20565;-67
2023/10/23 07:26:10;;;;;;;5.77;2.07;;;;;;;;;;5030962;28;20471;-67
2023/10/23 07:28:39;;;;;;;2.30;1.57;;;;;;;;;;5030342;28;20817;-66
2023/10/23 07:31:06;;;;;;;3.43;1.40;;;;;;;;;;5024291;28;20523;-66
2023/10/23 07:33:33;;;;;;;4.10;1.77;;;;;;;;;;5025955;28;20883;-66
2023/10/23 07:36:02;;;;;;;4.10;1.50;;;;;;;;;;5024302;28;20463;-67
2023/10/23 07:38:29;;;;;;;4.73;2.20;;;;;;;;;;5027802;28;20451;-67
2023/10/23 07:40:57;;;;;;;3.53;2.10;;;;;;;;;;5030053;28;20820;-66
2023/10/23 07:43:25;;;;;;;3.50;2.07;;;;;;;;;;5027002;28;20479;-66
2023/10/23 07:45:54;;;;;;;4.00;2.13;;;;;;;;;;5027612;28;20847;-66
2023/10/23 07:48:22;;;;;;;3.80;2.23;;;;;;;;;;5020678;28;20445;-66
2023/10/23 07:50:49;;;;;;;2.63;1.73;;;;;;;;;;5016764;28;20459;-66
2023/10/23 07:53:16;;;;;;;14.40;2.47;;;;;;;;;;5019984;28;20443;-66
2023/10/23 07:55:43;;;;;;;2.67;1.80;;;;;;;;;;5025575;28;20483;-67
2023/10/23 07:58:11;;;;;;;3.07;1.97;;;;;;;;;;5024050;28;20809;-67
2023/10/23 08:00:40;;;;;;;2.73;1.47;;;;;;;;;;5027474;28;20513;-67
2023/10/23 08:03:08;;;;;;;3.17;1.97;;;;;;;;;;5023483;28;20858;-66
2023/10/23 08:05:35;;;;;;;3.50;2.13;;;;;;;;;;5025569;28;20565;-65
2023/10/23 08:08:05;;;;;;;3.60;1.60;;;;;;;;;;5018372;28;20998;-67
2023/10/23 08:10:32;;;;;;;2.70;1.40;;;;;;;;;;5024622;28;20495;-68
2023/10/23 08:12:59;;;;;;;5.73;1.90;;;;;;;;;;5020608;28;20445;-66
2023/10/23 08:15:27;;;;;;;3.87;2.40;;;;;;;;;;5027805;28;20481;-67
2023/10/23 08:17:54;;;;;;;4.83;1.53;;;;;;;;;;5026331;28;20500;-66
2023/10/23 08:20:22;;;;;;;4.53;2.37;;;;;;;;;;5029532;28;20450;-66
2023/10/23 08:22:50;;;;;;;3.40;2.17;;;;;;;;;;5026305;28;20491;-67
2023/10/23 08:25:17;;;;;;;3.50;2.03;;;;;;;;;;5028227;28;20553;-66
2023/10/23 08:27:44;;;;;;;2.73;1.70;;;;;;;;;;5030658;28;20828;-66
2023/10/23 08:30:11;;;;;;;3.57;1.80;;;;;;;;;;5017190;28;20470;-67
2023/10/23 08:32:38;;;;;;;6.47;2.20;;;;;;;;;;5027409;28;21070;-66
2023/10/23 08:35:06;;;;;;;3.07;1.97;;;;;;;;;;5018146;28;20463;-66
2023/10/23 08:37:34;;;;;;;3.90;1.83;;;;;;;;;;5026704;28;20550;-65
2023/10/23 08:40:05;;;;;;;3.30;2.27;;;;;;;;;;5022267;28;20447;-66
2023/10/23 08:42:33;;;;;;;5.10;1.90;;;;;;;;;;5017284;28;20471;-66
2023/10/23 08:45:00;;;;;;;2.97;1.53;;;;;;;;;;5022356;28;20984;-65
2023/10/23 08:47:27;;;;;;;3.80;1.77;;;;;;;;;;5023649;28;20439;-66
2023/10/23 08:49:59;;;;;;;3.47;1.70;;;;;;;;;;5017107;28;20451;-66
2023/10/23 08:52:27;;;;;;;4.40;2.23;;;;;;;;;;5016596;28;20460;-66
2023/10/23 08:54:56;;;;;;;3.53;2.37;;;;;;;;;;5018194;28;20439;-65
2023/10/23 08:57:24;;;;;;;3.67;2.10;;;;;;;;;;5021800;28;20507;-67
2023/10/23 08:59:51;;;;;;;3.57;1.97;;;;;;;;;;5026721;28;20493;-67
2023/10/23 09:02:18;;;;;;;3.40;1.73;;;;;;;;;;5018818;28;20460;-66
2023/10/23 09:04:45;;;;;;;3.33;1.80;;;;;;;;;;5023600;28;21034;-67
2023/10/23 09:07:13;;;;;;;7.23;2.50;;;;;;;;;;5021144;28;20451;-66
2023/10/23 09:09:40;;;;;;;2.77;1.60;;;;;;;;;;5022026;28;20452;-66
2023/10/23 09:12:10;;;;;;;4.80;2.40;;;;;;;;;;5023765;28;20463;-66
2023/10/23 09:14:37;;;;;;;2.40;1.27;;;;;;;;;;5019444;28;20929;-67
2023/10/23 09:17:04;;;;;;;5.00;1.83;;;;;;;;;;5028645;28;20459;-65
2023/10/23 09:19:34;;;;;;;3.87;1.70;;;;;;;;;;5022484;28;20483;-67
2023/10/23 09:22:03;;;;;;;2.33;1.40;;;;;;;;;;5026255;28;20462;-66
2023/10/23 09:24:31;;;;;;;3.37;2.30;;;;;;;;;;5025244;28;20475;-66
2023/10/23 09:26:58;;;;;;;4.07;2.10;;;;;;;;;;5016675;28;20484;-66
2023/10/23 09:29:27;;;;;;;4.50;2.00;;;;;;;;;;5023665;28;20455;-67
2023/10/23 09:31:55;;;;;;;2.43;1.57;;;;;;;;;;5023838;28;20466;-66
2023/10/23 09:34:23;;;;;;;2.60;1.73;;;;;;;;;;5029823;28;20466;-66
2023/10/23 09:36:51;;;;;;;3.63;1.83;;;;;;;;;;5018675;28;20471;-66
2023/10/23 09:39:18;;;;;;;2.30;1.40;;;;;;;;;;5018000;28;20451;-67
2023/10/23 09:41:47;;;;;;;5.77;1.63;;;;;;;;;;5031408;28;20467;-65
2023/10/23 09:44:14;;;;;;;2.90;1.27;;;;;;;;;;5024334;28;20529;-65
2023/10/23 09:46:43;;;;;;;2.70;1.43;;;;;;;;;;5036864;28;20463;-66
2023/10/23 09:49:12;;;;;;;3.10;1.77;;;;;;;;;;5041969;28;20447;-66
2023/10/23 09:51:40;;;;;;;2.53;1.33;;;;;;;;;;5038161;28;20454;-66
2023/10/23 09:54:17;;;;;;;2.93;1.60;;;;;;;;;;5027436;28;20485;-66
2023/10/23 09:56:48;;;;;;;2.33;1.20;;;;;;;;;;5033589;28;20499;-66
2023/10/23 09:59:17;;;;;;;3.10;2.10;;;;;;;;;;5032427;28;20474;-66
2023/10/23 10:01:48;;;;;;;3.53;1.40;;;;;;;;;;5032959;28;20447;-66
2023/10/23 10:04:18;;;;;;;6.43;2.10;;;;;;;;;;5035881;28;20534;-65
2023/10/23 10:06:47;;;;;;;2.43;1.57;;;;;;;;;;5021597;28;20478;-66
2023/10/23 10:09:14;;;;;;;3.10;1.30;;;;;;;;;;5042125;28;20447;-66
2023/10/23 10:11:43;;;;;;;4.50;2.37;;;;;;;;;;5026964;28;20454;-66
2023/10/23 10:14:11;;;;;;;3.00;1.33;;;;;;;;;;5036600;28;20443;-67
2023/10/23 10:16:38;;;;;;;2.20;1.40;;;;;;;;;;5033280;28;20512;-67
2023/10/23 10:19:07;;;;;;;3.80;1.80;;;;;;;;;;5031777;28;20818;-66
2023/10/23 10:21:36;;;;;;;3.23;1.07;;;;;;;;;;5028522;28;20498;-66
2023/10/23 10:24:05;;;;;;;3.13;1.53;;;;;;;;;;5016518;28;20495;-66
2023/10/23 10:26:33;;;;;;;2.30;1.07;;;;;;;;;;5026415;28;20590;-66
2023/10/23 10:29:01;;;;;;;2.90;1.43;;;;;;;;;;5019774;28;20469;-66
2023/10/23 10:31:28;;;;;;;2.57;1.87;;;;;;;;;;5032816;28;20454;-66
2023/10/23 10:33:56;;;;;;;3.00;1.60;;;;;;;;;;5020357;28;20449;-67
2023/10/23 10:36:27;;;;;;;2.60;1.80;;;;;;;;;;5024826;28;20491;-66
2023/10/23 10:38:54;;;;;;;4.00;2.17;;;;;;;;;;5029335;28;20443;-66
2023/10/23 10:41:25;;;;;;;3.70;1.97;;;;;;;;;;5023234;28;20467;-66
2023/10/23 10:43:52;;;;;;;4.00;2.40;;;;;;;;;;5021028;28;20467;-65
2023/10/23 10:46:21;;;;;;;5.00;2.27;;;;;;;;;;5031642;28;20467;-66
2023/10/23 10:48:48;;;;;;;5.33;3.77;;;;;;;;;;5021114;28;20494;-68
2023/10/23 10:51:17;;;;;;;5.77;2.60;;;;;;;;;;5022979;28;20443;-67
2023/10/23 10:53:46;;;;;;;6.00;3.40;;;;;;;;;;5025892;28;20455;-66
2023/10/23 10:56:14;;;;;;;5.73;3.13;;;;;;;;;;5014538;28;20962;-66
2023/10/23 10:58:42;;;;;;;6.03;3.73;;;;;;;;;;5016623;28;20444;-67
2023/10/23 11:01:09;;;;;;;8.80;3.80;;;;;;;;;;5027535;28;20517;-67
2023/10/23 11:03:37;;;;;;;6.90;2.50;;;;;;;;;;5020214;28;20486;-66
2023/10/23 11:06:04;;;;;;;8.60;2.43;;;;;;;;;;5019635;28;20476;-67
2023/10/23 11:08:31;;;;;;;5.63;3.10;;;;;;;;;;5028715;28;20450;-67
2023/10/23 11:11:03;;;;;;;6.20;4.00;;;;;;;;;;5029475;28;20542;-66
2023/10/23 11:13:32;;;;;;;3.43;3.07;;;;;;;;;;5021970;28;20543;-67
2023/10/23 11:15:59;;;;;;;10.33;2.93;;;;;;;;;;5027547;28;20475;-67
2023/10/23 11:18:27;;;;;;;6.87;3.03;;;;;;;;;;5015365;28;20455;-65
2023/10/23 11:20:58;;;;;;;11.57;2.73;;;;;;;;;;5028645;28;20440;-66
2023/10/23 11:23:25;;;;;;;4.97;2.67;;;;;;;;;;5027224;28;20578;-67
2023/10/23 11:25:54;;;;;;;6.07;3.30;;;;;;;;;;5019272;28;20518;-67
2023/10/23 11:28:22;;;;;;;8.77;3.53;;;;;;;;;;5019339;28;20832;-67
2023/10/23 11:30:54;;;;;;;5.50;2.67;;;;;;;;;;5026415;28;20448;-66
2023/10/23 11:33:22;;;;;;;5.23;3.00;;;;;;;;;;5027099;28;20641;-67
2023/10/23 11:35:49;;;;;;;6.90;3.57;;;;;;;;;;5018758;28;20479;-66
2023/10/23 11:38:17;;;;;;;6.77;2.53;;;;;;;;;;5028482;28;20447;-66
2023/10/23 11:40:44;;;;;;;6.00;4.20;;;;;;;;;;5018208;28;20564;-67
2023/10/23 11:43:12;;;;;;;5.10;3.17;;;;;;;;;;5031022;28;20466;-67
2023/10/23 11:45:40;;;;;;;5.47;2.80;;;;;;;;;;5027951;28;20525;-67
2023/10/23 11:48:08;;;;;;;5.20;2.80;;;;;;;;;;5030175;28;20450;-67
2023/10/23 11:50:36;;;;;;;4.50;2.63;;;;;;;;;;5018821;28;20534;-67
2023/10/23 11:53:07;;;;;;;6.33;2.03;;;;;;;;;;5030921;28;20614;-66
2023/10/23 11:55:34;;;;;;;5.73;2.80;;;;;;;;;;5018573;28;20463;-66
2023/10/23 11:58:03;;;;;;;9.40;2.73;;;;;;;;;;5021203;28;20495;-67
2023/10/23 12:00:32;;;;;;;5.90;2.80;;;;;;;;;;5021543;28;20523;-66
2023/10/23 12:03:00;;;;;;;7.17;2.87;;;;;;;;;;5025347;28;20953;-67
2023/10/23 12:05:28;;;;;;;5.23;2.60;;;;;;;;;;5029232;28;20545;-67
2023/10/23 12:07:55;;;;;;;7.00;2.87;;;;;;;;;;5022404;28;20439;-67
2023/10/23 12:10:24;;;;;;;3.20;2.13;;;;;;;;;;5020333;28;20490;-67
2023/10/23 12:12:52;;;;;;;5.50;3.10;;;;;;;;;;5020666;28;20798;-67
2023/10/23 12:15:21;;;;;;;3.20;2.80;;;;;;;;;;5022969;28;20465;-67
2023/10/23 12:17:48;;;;;;;4.73;2.60;;;;;;;;;;5018228;28;20444;-67
2023/10/23 12:20:16;;;;;;;4.63;3.13;;;;;;;;;;5022021;28;20462;-66
2023/10/23 12:22:45;;;;;;;6.50;4.07;;;;;;;;;;5030489;28;20980;-68
2023/10/23 12:25:12;;;;;;;3.43;2.10;;;;;;;;;;5027799;28;20862;-67
2023/10/23 12:27:40;;;;;;;4.93;2.97;;;;;;;;;;5020288;28;20489;-66
2023/10/23 12:30:09;;;;;;;4.57;2.53;;;;;;;;;;5020042;28;20458;-67
2023/10/23 12:32:39;;;;;;;7.77;4.53;;;;;;;;;;5024633;28;20475;-67
2023/10/23 12:35:07;;;;;;;7.80;2.43;;;;;;;;;;5021792;28;20479;-66
2023/10/23 12:37:37;;;;;;;7.90;2.33;;;;;;;;;;5013560;28;20806;-66
2023/10/23 12:40:08;;;;;;;3.80;2.20;;;;;;;;;;5025122;28;20536;-67
2023/10/23 12:42:35;;;;;;;4.40;2.30;;;;;;;;;;5017663;28;20540;-67
2023/10/23 12:45:03;;;;;;;4.20;2.37;;;;;;;;;;5026102;28;20482;-67
2023/10/23 12:47:32;;;;;;;2.80;2.13;;;;;;;;;;5023162;28;20435;-67
2023/10/23 12:50:00;;;;;;;3.57;2.20;;;;;;;;;;5017509;28;20448;-66
2023/10/23 12:52:27;;;;;;;4.60;2.50;;;;;;;;;;5030255;28;20451;-67
2023/10/23 12:54:56;;;;;;;4.10;3.07;;;;;;;;;;5025100;28;20451;-66
2023/10/23 12:57:23;;;;;;;4.43;2.80;;;;;;;;;;5017548;28;20440;-67
2023/10/23 12:59:51;;;;;;;4.70;2.53;;;;;;;;;;5024364;28;20463;-67
2023/10/23 13:02:18;;;;;;;3.90;2.50;;;;;;;;;;5020652;28;20475;-66
2023/10/23 13:04:45;;;;;;;4.57;3.37;;;;;;;;;;5016129;28;20501;-67
2023/10/23 13:07:12;;;;;;;5.20;3.17;;;;;;;;;;5021009;28;20549;-66
2023/10/23 13:09:39;;;;;;;15.93;2.93;;;;;;;;;;5022086;28;20514;-66
2023/10/23 13:12:08;;;;;;;5.33;2.20;;;;;;;;;;5021340;28;20493;-67
2023/10/23 13:14:35;;;;;;;5.53;2.50;;;;;;;;;;5029183;28;20462;-66
2023/10/23 13:17:02;;;;;;;5.50;2.70;;;;;;;;;;5019991;28;20476;-67
2023/10/23 13:19:29;;;;;;;5.53;2.33;;;;;;;;;;5024728;28;20452;-66
2023/10/23 13:21:56;;;;;;;2.90;1.77;;;;;;;;;;5020657;28;20482;-68
2023/10/23 13:24:23;;;;;;;5.53;3.00;;;;;;;;;;5020404;28;20483;-67
2023/10/23 13:26:51;;;;;;;5.37;2.43;;;;;;;;;;5027389;28;20806;-65
2023/10/23 13:29:19;;;;;;;3.50;2.40;;;;;;;;;;5024864;28;20455;-68
2023/10/23 13:31:48;;;;;;;6.13;3.07;;;;;;;;;;5025786;28;20466;-67
2023/10/23 13:34:15;;;;;;;5.60;2.10;;;;;;;;;;5027855;28;20443;-65
2023/10/23 13:36:42;;;;;;;3.47;2.13;;;;;;;;;;5018913;28;20495;-66
2023/10/23 13:39:09;;;;;;;4.03;2.40;;;;;;;;;;5018849;28;20455;-66
2023/10/23 13:41:37;;;;;;;3.60;1.73;;;;;;;;;;5034545;28;20446;-65
2023/10/23 13:44:04;;;;;;;3.07;1.80;;;;;;;;;;5020629;28;20495;-66
2023/10/23 13:46:32;;;;;;;5.40;2.57;;;;;;;;;;5033835;28;20494;-67
2023/10/23 13:49:01;;;;;;;5.53;2.23;;;;;;;;;;5032014;28;20439;-67
2023/10/23 13:51:28;;;;;;;2.83;1.80;;;;;;;;;;5024618;28;20463;-68
2023/10/23 13:53:55;;;;;;;9.50;4.90;;;;;;;;;;5030252;28;20454;-67
2023/10/23 13:56:23;;;;;;;3.27;1.90;;;;;;;;;;5020474;28;20469;-67
2023/10/23 13:58:50;;;;;;;2.97;2.20;;;;;;;;;;5027337;28;20449;-67
2023/10/23 14:01:17;;;;;;;4.20;2.00;;;;;;;;;;5022495;28;20459;-67
2023/10/23 14:03:47;;;;;;;3.47;2.10;;;;;;;;;;5029738;28;20840;-66
2023/10/23 14:06:14;;;;;;;3.43;1.73;;;;;;;;;;5033468;28;20463;-66
2023/10/23 14:08:42;;;;;;;5.53;2.23;;;;;;;;;;5023329;28;20436;-68
2023/10/23 14:11:09;;;;;;;3.97;2.60;;;;;;;;;;5026267;28;20447;-67
2023/10/23 14:13:37;;;;;;;6.77;1.93;;;;;;;;;;5023440;28;20984;-67
2023/10/23 14:16:04;;;;;;;4.17;2.80;;;;;;;;;;5034160;28;20853;-68
2023/10/23 14:18:31;;;;;;;9.83;5.60;;;;;;;;;;5033191;28;20777;-68
2023/10/23 14:20:59;;;;;;;9.47;4.20;;;;;;;;;;5028517;28;20436;-67
2023/10/23 14:23:29;;;;;;;5.10;2.50;;;;;;;;;;5022279;28;20440;-67
2023/10/23 14:25:57;;;;;;;7.37;2.90;;;;;;;;;;5022667;28;20487;-67
2023/10/23 14:28:24;;;;;;;4.40;2.77;;;;;;;;;;5025916;28;20857;-66
2023/10/23 14:30:51;;;;;;;4.60;2.60;;;;;;;;;;5023832;28;20448;-67
2023/10/23 14:33:19;;;;;;;3.77;2.27;;;;;;;;;;5017348;28;20440;-67
2023/10/23 14:35:46;;;;;;;3.60;2.60;;;;;;;;;;5017203;28;20483;-67
2023/10/23 14:38:14;;;;;;;3.10;2.40;;;;;;;;;;5033150;28;20439;-66
2023/10/23 14:40:41;;;;;;;5.53;3.70;;;;;;;;;;5034074;28;20439;-67
2023/10/23 14:43:11;;;;;;;5.20;3.23;;;;;;;;;;5024731;28;20466;-67
2023/10/23 14:45:38;;;;;;;8.20;2.57;;;;;;;;;;5032295;28;20872;-67